Time;durP1;ratioP1;P1;durP2;ratioP2;P2;SDS_P1;SDS_P2;PMS_P1;PMS_P2;Temp;Humidity;BMP_temperature;BMP_pressure;BME280_temperature;BME280_humidity;BME280_pressure;Samples;Min_cycle;Max_cycle;Signal;HPM_P1;HPM_P2
2023/11/24 00:01:00;;;;;;;3.35;2.15;;;;;;;;;;5021471;28;20054;-57
2023/11/24 00:03:25;;;;;;;3.17;2.30;;;;;;;;;;5023351;28;20492;-58
2023/11/24 00:05:50;;;;;;;4.07;2.20;;;;;;;;;;5023644;28;20064;-57
2023/11/24 00:08:15;;;;;;;3.42;2.30;;;;;;;;;;5025200;28;20307;-56
2023/11/24 00:10:43;;;;;;;3.00;1.83;;;;;;;;;;5026849;28;20048;-57
2023/11/24 00:13:09;;;;;;;4.03;2.38;;;;;;;;;;5023651;28;20038;-57
2023/11/24 00:15:36;;;;;;;3.38;2.10;;;;;;;;;;5022991;28;20543;-57
2023/11/24 00:18:02;;;;;;;2.95;2.28;;;;;;;;;;5024268;28;20048;-57
2023/11/24 00:20:27;;;;;;;3.00;2.10;;;;;;;;;;5006038;28;20049;-57
2023/11/24 00:22:53;;;;;;;3.20;2.00;;;;;;;;;;5024199;28;20120;-57
2023/11/24 00:25:18;;;;;;;3.73;2.40;;;;;;;;;;5023512;28;20199;-57
2023/11/24 00:27:43;;;;;;;3.03;2.20;;;;;;;;;;5024288;28;20790;-57
2023/11/24 00:30:09;;;;;;;3.92;2.47;;;;;;;;;;5023555;28;20324;-57
2023/11/24 00:32:39;;;;;;;3.72;2.40;;;;;;;;;;5024086;28;20042;-57
2023/11/24 00:35:06;;;;;;;3.13;2.08;;;;;;;;;;5023020;28;20048;-57
2023/11/24 00:37:31;;;;;;;3.53;2.05;;;;;;;;;;5022903;28;20529;-58
2023/11/24 00:39:57;;;;;;;2.85;1.80;;;;;;;;;;5023469;28;20037;-57
2023/11/24 00:42:23;;;;;;;3.33;2.30;;;;;;;;;;5023627;28;20025;-57
2023/11/24 00:44:48;;;;;;;2.97;2.08;;;;;;;;;;5022954;28;20095;-56
2023/11/24 00:47:14;;;;;;;3.35;2.25;;;;;;;;;;5027859;28;20112;-56
2023/11/24 00:49:39;;;;;;;3.53;2.35;;;;;;;;;;5028011;28;20458;-56
2023/11/24 00:52:04;;;;;;;3.00;2.22;;;;;;;;;;5028423;28;20025;-57
2023/11/24 00:54:30;;;;;;;3.70;2.33;;;;;;;;;;5042849;28;20047;-57
2023/11/24 00:56:55;;;;;;;3.00;2.00;;;;;;;;;;5027616;28;20025;-57
2023/11/24 00:59:20;;;;;;;3.47;2.47;;;;;;;;;;5027450;28;20646;-57
2023/11/24 01:01:46;;;;;;;3.67;2.05;;;;;;;;;;5032766;28;20256;-57
2023/11/24 01:04:11;;;;;;;3.20;2.17;;;;;;;;;;5027021;28;20109;-58
2023/11/24 01:06:36;;;;;;;3.55;2.15;;;;;;;;;;5027863;28;20035;-57
2023/11/24 01:09:03;;;;;;;3.53;2.17;;;;;;;;;;5028078;28;20075;-56
2023/11/24 01:11:29;;;;;;;3.20;2.22;;;;;;;;;;5010312;28;20809;-56
2023/11/24 01:13:55;;;;;;;3.10;2.20;;;;;;;;;;5027510;28;20030;-57
2023/11/24 01:16:20;;;;;;;3.45;2.20;;;;;;;;;;5027009;28;20552;-55
2023/11/24 01:18:46;;;;;;;2.93;2.07;;;;;;;;;;5027420;28;20104;-57
2023/11/24 01:21:11;;;;;;;3.92;2.30;;;;;;;;;;5026368;28;20358;-56
2023/11/24 01:23:37;;;;;;;2.97;2.38;;;;;;;;;;5016632;28;20025;-56
2023/11/24 01:26:21;;;;;;;3.38;2.00;;;;;;;;;;5033274;28;20056;-56
2023/11/24 01:28:47;;;;;;;3.03;2.00;;;;;;;;;;5027072;28;20029;-57
2023/11/24 01:31:12;;;;;;;2.63;2.00;;;;;;;;;;5027056;28;20116;-57
2023/11/24 01:33:38;;;;;;;2.95;1.85;;;;;;;;;;5027239;28;20713;-57
2023/11/24 01:36:03;;;;;;;3.50;1.98;;;;;;;;;;5027602;28;20426;-57
2023/11/24 01:38:28;;;;;;;3.03;2.00;;;;;;;;;;5026846;28;20045;-56
2023/11/24 01:40:54;;;;;;;2.63;1.80;;;;;;;;;;5027014;28;20067;-57
2023/11/24 01:43:19;;;;;;;3.00;2.00;;;;;;;;;;5027311;28;20292;-58
2023/11/24 01:45:45;;;;;;;3.07;1.90;;;;;;;;;;5007716;28;20037;-56
2023/11/24 01:48:10;;;;;;;3.75;2.33;;;;;;;;;;5025534;28;20272;-56
2023/11/24 01:50:36;;;;;;;3.38;2.20;;;;;;;;;;5026378;28;20083;-57
2023/11/24 01:53:01;;;;;;;2.75;2.08;;;;;;;;;;5026409;28;20033;-57
2023/11/24 01:55:26;;;;;;;3.08;2.05;;;;;;;;;;5026642;28;20041;-57
2023/11/24 01:57:55;;;;;;;3.03;2.17;;;;;;;;;;5014771;28;20052;-56
2023/11/24 02:00:20;;;;;;;3.38;1.90;;;;;;;;;;5008882;28;20682;-57
2023/11/24 02:02:45;;;;;;;3.17;2.22;;;;;;;;;;5026558;28;20039;-57
2023/11/24 02:05:12;;;;;;;3.40;2.20;;;;;;;;;;5026389;28;20036;-58
2023/11/24 02:07:37;;;;;;;2.72;1.80;;;;;;;;;;5008415;28;20331;-58
2023/11/24 02:10:02;;;;;;;2.83;1.97;;;;;;;;;;5025973;28;20068;-58
2023/11/24 02:12:27;;;;;;;2.83;2.10;;;;;;;;;;5008656;28;20284;-57
2023/11/24 02:14:53;;;;;;;2.90;1.87;;;;;;;;;;5026084;28;20030;-58
2023/11/24 02:17:18;;;;;;;3.00;2.17;;;;;;;;;;5026059;28;20774;-57
2023/11/24 02:19:43;;;;;;;2.80;2.00;;;;;;;;;;5025912;28;20088;-57
2023/11/24 02:22:09;;;;;;;3.08;1.80;;;;;;;;;;5041958;28;20045;-58
2023/11/24 02:24:34;;;;;;;3.57;2.13;;;;;;;;;;5026010;28;20866;-57
2023/11/24 02:26:59;;;;;;;2.20;1.77;;;;;;;;;;5025635;28;20292;-58
2023/11/24 02:29:25;;;;;;;2.35;1.77;;;;;;;;;;5026501;28;20289;-58
2023/11/24 02:31:50;;;;;;;3.47;2.40;;;;;;;;;;5027561;28;20061;-57
2023/11/24 02:34:15;;;;;;;2.78;2.03;;;;;;;;;;5026492;28;20026;-58
2023/11/24 02:36:42;;;;;;;3.10;2.03;;;;;;;;;;5025371;28;20571;-58
2023/11/24 02:39:08;;;;;;;2.92;1.90;;;;;;;;;;5025553;28;20110;-56
2023/11/24 02:41:33;;;;;;;3.30;2.08;;;;;;;;;;5024942;28;20049;-58
2023/11/24 02:43:58;;;;;;;2.88;2.03;;;;;;;;;;5025932;28;20120;-57
2023/11/24 02:46:24;;;;;;;2.55;2.00;;;;;;;;;;5024974;28;20183;-57
2023/11/24 02:48:49;;;;;;;2.93;1.97;;;;;;;;;;5028791;28;20433;-58
2023/11/24 02:51:14;;;;;;;3.70;2.10;;;;;;;;;;5025971;28;20726;-57
2023/11/24 02:53:40;;;;;;;2.97;1.98;;;;;;;;;;5026220;28;20303;-58
2023/11/24 02:56:05;;;;;;;3.53;2.00;;;;;;;;;;5025161;28;20419;-58
2023/11/24 02:58:31;;;;;;;2.42;1.77;;;;;;;;;;5025654;28;20041;-57
2023/11/24 03:00:56;;;;;;;3.08;2.00;;;;;;;;;;5025925;28;20037;-57
2023/11/24 03:03:22;;;;;;;3.00;2.05;;;;;;;;;;5025695;28;20034;-57
2023/11/24 03:05:50;;;;;;;1.73;1.42;;;;;;;;;;5023656;28;20160;-58
2023/11/24 03:08:16;;;;;;;4.07;2.13;;;;;;;;;;5025395;28;20099;-58
2023/11/24 03:10:41;;;;;;;2.93;2.03;;;;;;;;;;5025247;28;20041;-58
2023/11/24 03:13:07;;;;;;;2.60;1.87;;;;;;;;;;5025297;28;20272;-59
2023/11/24 03:15:32;;;;;;;3.08;1.98;;;;;;;;;;5024629;28;20750;-57
2023/11/24 03:17:57;;;;;;;3.70;1.95;;;;;;;;;;5025704;28;20155;-57
2023/11/24 03:20:22;;;;;;;3.10;1.90;;;;;;;;;;5025626;28;20125;-57
2023/11/24 03:22:48;;;;;;;3.33;2.00;;;;;;;;;;5025361;28;20284;-57
2023/11/24 03:25:13;;;;;;;3.55;2.00;;;;;;;;;;5024723;28;20833;-57
2023/11/24 03:27:38;;;;;;;2.67;1.90;;;;;;;;;;5024042;28;20032;-57
2023/11/24 03:30:04;;;;;;;3.20;1.93;;;;;;;;;;5025728;28;20431;-58
2023/11/24 03:32:29;;;;;;;3.30;2.05;;;;;;;;;;4991049;28;20780;-57
2023/11/24 03:34:55;;;;;;;3.60;1.93;;;;;;;;;;5025242;28;20041;-58
2023/11/24 03:37:21;;;;;;;2.80;1.77;;;;;;;;;;5022998;28;20658;-57
2023/11/24 03:39:46;;;;;;;3.78;2.10;;;;;;;;;;5005464;28;20057;-57
2023/11/24 03:42:11;;;;;;;2.88;1.92;;;;;;;;;;5006504;28;20029;-57
2023/11/24 03:44:38;;;;;;;2.75;1.90;;;;;;;;;;5023633;28;20046;-58
2023/11/24 03:47:04;;;;;;;3.15;1.92;;;;;;;;;;5024365;28;20037;-58
2023/11/24 03:49:29;;;;;;;3.40;2.17;;;;;;;;;;5006713;28;20106;-57
2023/11/24 03:51:54;;;;;;;2.63;2.07;;;;;;;;;;5024595;28;20051;-58
2023/11/24 03:54:21;;;;;;;2.35;1.67;;;;;;;;;;5025132;28;20845;-58
2023/11/24 03:56:47;;;;;;;4.30;2.28;;;;;;;;;;5024066;28;20534;-57
2023/11/24 03:59:12;;;;;;;3.78;2.17;;;;;;;;;;5006803;28;21252;-57
2023/11/24 04:01:37;;;;;;;3.15;2.00;;;;;;;;;;5024001;28;20404;-57
2023/11/24 04:04:03;;;;;;;2.83;2.00;;;;;;;;;;5024381;28;20490;-57
2023/11/24 04:06:28;;;;;;;3.25;2.25;;;;;;;;;;5022952;28;20781;-58
2023/11/24 04:08:53;;;;;;;2.72;2.13;;;;;;;;;;5024886;28;20554;-57
2023/11/24 04:11:18;;;;;;;3.30;2.33;;;;;;;;;;5024415;28;20041;-58
2023/11/24 04:13:44;;;;;;;3.00;2.27;;;;;;;;;;5024502;28;20304;-57
2023/11/24 04:16:09;;;;;;;2.95;2.03;;;;;;;;;;5023477;28;20918;-58
2023/11/24 04:18:34;;;;;;;3.08;2.22;;;;;;;;;;5024268;28;20171;-57
2023/11/24 04:21:00;;;;;;;2.83;2.00;;;;;;;;;;5005529;28;20059;-57
2023/11/24 04:23:25;;;;;;;3.47;2.20;;;;;;;;;;5024276;28;20037;-58
2023/11/24 04:25:50;;;;;;;3.00;1.95;;;;;;;;;;5023374;28;20276;-58
2023/11/24 04:28:16;;;;;;;2.88;2.03;;;;;;;;;;5024217;28;20038;-57
2023/11/24 04:30:41;;;;;;;3.25;2.20;;;;;;;;;;5024180;28;20037;-57
2023/11/24 04:33:06;;;;;;;2.90;1.88;;;;;;;;;;5024273;28;20581;-57
2023/11/24 04:35:32;;;;;;;2.95;2.15;;;;;;;;;;5023549;28;20425;-58
2023/11/24 04:37:57;;;;;;;3.05;2.20;;;;;;;;;;5024444;28;20091;-57
2023/11/24 04:40:23;;;;;;;2.83;2.00;;;;;;;;;;5024148;28;20049;-57
2023/11/24 04:42:48;;;;;;;2.85;2.08;;;;;;;;;;5024184;28;20318;-57
2023/11/24 04:45:14;;;;;;;3.15;2.28;;;;;;;;;;5023567;28;20037;-58
2023/11/24 04:47:39;;;;;;;3.35;2.08;;;;;;;;;;5023889;28;20044;-58
2023/11/24 04:50:07;;;;;;;3.87;2.10;;;;;;;;;;5022755;28;20034;-58
2023/11/24 04:52:33;;;;;;;4.68;2.17;;;;;;;;;;5023601;28;20291;-57
2023/11/24 04:54:58;;;;;;;2.90;2.15;;;;;;;;;;5023808;28;20046;-57
2023/11/24 04:57:23;;;;;;;3.90;2.30;;;;;;;;;;5022681;28;20045;-58
2023/11/24 04:59:48;;;;;;;2.40;1.90;;;;;;;;;;5006266;28;20357;-57
2023/11/24 05:02:14;;;;;;;3.88;2.05;;;;;;;;;;5012042;28;20817;-58
2023/11/24 05:04:39;;;;;;;2.87;1.97;;;;;;;;;;5024149;28;20171;-58
2023/11/24 05:07:04;;;;;;;2.87;2.10;;;;;;;;;;5023815;28;20291;-58
2023/11/24 05:09:30;;;;;;;3.08;2.10;;;;;;;;;;5024109;28;20280;-57
2023/11/24 05:11:55;;;;;;;3.17;2.17;;;;;;;;;;5033087;28;20514;-58
2023/11/24 05:14:20;;;;;;;3.28;2.30;;;;;;;;;;5029343;28;20033;-58
2023/11/24 05:16:45;;;;;;;3.58;2.30;;;;;;;;;;5026531;28;20022;-57
2023/11/24 05:19:11;;;;;;;3.83;2.57;;;;;;;;;;5022939;28;20091;-58
2023/11/24 05:21:38;;;;;;;3.95;2.50;;;;;;;;;;5024961;28;20300;-57
2023/11/24 05:24:03;;;;;;;3.70;2.53;;;;;;;;;;5024058;28;20033;-57
2023/11/24 05:26:28;;;;;;;3.65;2.33;;;;;;;;;;5018533;28;20048;-58
2023/11/24 05:28:54;;;;;;;5.40;3.87;;;;;;;;;;5032625;28;20108;-59
2023/11/24 05:31:19;;;;;;;4.47;3.13;;;;;;;;;;5028373;28;20280;-57
2023/11/24 05:33:44;;;;;;;3.27;2.30;;;;;;;;;;5012714;28;20037;-57
2023/11/24 05:36:10;;;;;;;2.95;2.17;;;;;;;;;;4993648;28;21299;-56
2023/11/24 05:38:38;;;;;;;6.10;2.60;;;;;;;;;;5011615;28;20046;-57
2023/11/24 05:41:04;;;;;;;3.55;2.03;;;;;;;;;;5011296;28;20057;-57
2023/11/24 05:43:29;;;;;;;3.33;2.30;;;;;;;;;;5012911;28;20203;-57
2023/11/24 05:45:55;;;;;;;2.83;2.00;;;;;;;;;;5012925;28;20575;-57
2023/11/24 05:48:20;;;;;;;2.90;2.03;;;;;;;;;;5012443;28;20033;-57
2023/11/24 05:50:45;;;;;;;3.20;2.30;;;;;;;;;;5012245;28;20326;-57
2023/11/24 05:53:10;;;;;;;3.00;2.20;;;;;;;;;;5012750;28;20384;-56
2023/11/24 05:55:36;;;;;;;3.35;2.38;;;;;;;;;;5014379;28;20080;-57
2023/11/24 05:58:05;;;;;;;2.90;1.97;;;;;;;;;;5012913;28;20098;-57
2023/11/24 06:00:31;;;;;;;2.67;2.10;;;;;;;;;;5011543;28;20833;-57
2023/11/24 06:02:56;;;;;;;4.28;2.55;;;;;;;;;;5011691;28;20387;-56
2023/11/24 06:05:21;;;;;;;3.08;2.05;;;;;;;;;;5012517;28;20072;-57
2023/11/24 06:07:47;;;;;;;3.38;2.58;;;;;;;;;;5012485;28;22424;-58
2023/11/24 06:10:12;;;;;;;3.83;2.50;;;;;;;;;;5011700;28;20029;-56
2023/11/24 06:12:37;;;;;;;3.60;2.50;;;;;;;;;;5013411;28;20132;-57
2023/11/24 06:15:03;;;;;;;3.80;2.30;;;;;;;;;;5012362;28;20032;-57
2023/11/24 06:17:29;;;;;;;3.28;2.35;;;;;;;;;;5011972;28;20775;-58
2023/11/24 06:19:54;;;;;;;2.88;2.25;;;;;;;;;;5011731;28;20082;-57
2023/11/24 06:22:19;;;;;;;3.20;2.40;;;;;;;;;;5012148;28;20044;-57
2023/11/24 06:24:44;;;;;;;4.00;2.42;;;;;;;;;;5011587;28;20484;-57
2023/11/24 06:27:10;;;;;;;3.97;2.20;;;;;;;;;;5011768;28;20030;-57
2023/11/24 06:29:35;;;;;;;3.40;2.20;;;;;;;;;;5012444;28;20296;-58
2023/11/24 06:32:01;;;;;;;3.25;2.30;;;;;;;;;;5013397;28;20037;-57
2023/11/24 06:34:26;;;;;;;3.65;2.38;;;;;;;;;;5012162;28;20122;-58
2023/11/24 06:36:52;;;;;;;4.13;2.20;;;;;;;;;;5011509;28;20116;-58
2023/11/24 06:39:19;;;;;;;4.00;2.60;;;;;;;;;;5011054;28;20140;-60
2023/11/24 06:41:46;;;;;;;3.60;2.40;;;;;;;;;;4993850;28;20220;-58
2023/11/24 06:44:11;;;;;;;3.30;2.38;;;;;;;;;;5011477;28;20049;-58
2023/11/24 06:46:36;;;;;;;4.28;2.70;;;;;;;;;;4998460;28;20490;-63
2023/11/24 06:49:02;;;;;;;3.60;2.58;;;;;;;;;;5012727;28;20120;-57
2023/11/24 06:51:28;;;;;;;3.47;2.65;;;;;;;;;;5012713;28;21121;-57
2023/11/24 06:53:54;;;;;;;3.83;2.72;;;;;;;;;;5011956;28;20431;-59
2023/11/24 06:56:19;;;;;;;5.82;2.75;;;;;;;;;;5010772;28;20030;-57
2023/11/24 06:58:44;;;;;;;4.82;2.78;;;;;;;;;;5011829;28;20030;-57
2023/11/24 07:01:10;;;;;;;5.32;2.55;;;;;;;;;;5013329;28;20050;-56
2023/11/24 07:03:35;;;;;;;3.88;2.75;;;;;;;;;;5014075;28;20048;-58
2023/11/24 07:06:00;;;;;;;4.25;3.00;;;;;;;;;;5014049;28;20679;-56
2023/11/24 07:08:26;;;;;;;3.67;2.65;;;;;;;;;;5015873;28;20194;-56
2023/11/24 07:10:51;;;;;;;5.00;2.22;;;;;;;;;;5014559;28;20040;-57
2023/11/24 07:13:17;;;;;;;3.10;2.60;;;;;;;;;;5016508;28;20054;-57
2023/11/24 07:15:42;;;;;;;5.30;2.60;;;;;;;;;;5015515;28;20108;-57
2023/11/24 07:18:07;;;;;;;5.30;2.60;;;;;;;;;;5015354;28;20304;-58
2023/11/24 07:20:33;;;;;;;4.40;2.53;;;;;;;;;;5013305;28;20042;-56
2023/11/24 07:22:58;;;;;;;3.75;2.47;;;;;;;;;;5014872;28;20048;-58
2023/11/24 07:25:24;;;;;;;4.78;2.78;;;;;;;;;;5014556;28;20103;-56
2023/11/24 07:27:50;;;;;;;4.35;2.65;;;;;;;;;;5015223;28;20037;-57
2023/11/24 07:30:16;;;;;;;4.28;2.60;;;;;;;;;;5014066;28;20534;-57
2023/11/24 07:32:41;;;;;;;4.85;2.75;;;;;;;;;;5014648;28;20103;-56
2023/11/24 07:35:08;;;;;;;5.30;2.97;;;;;;;;;;5016615;28;20030;-57
2023/11/24 07:37:34;;;;;;;4.78;2.60;;;;;;;;;;5016302;28;20116;-58
2023/11/24 07:39:59;;;;;;;4.13;2.72;;;;;;;;;;5016416;28;20114;-57
2023/11/24 07:42:24;;;;;;;4.20;2.60;;;;;;;;;;5012657;28;20038;-58
2023/11/24 07:44:50;;;;;;;3.85;2.55;;;;;;;;;;5016393;28;20822;-57
2023/11/24 07:47:18;;;;;;;4.50;2.50;;;;;;;;;;5014323;28;20177;-58
2023/11/24 07:49:43;;;;;;;3.33;2.50;;;;;;;;;;5013112;28;20959;-59
2023/11/24 07:52:11;;;;;;;11.77;3.85;;;;;;;;;;5012218;28;20033;-58
2023/11/24 07:54:36;;;;;;;7.50;2.92;;;;;;;;;;5009730;28;20553;-57
2023/11/24 07:57:02;;;;;;;8.60;3.25;;;;;;;;;;5011499;28;20124;-58
2023/11/24 07:59:28;;;;;;;5.03;2.78;;;;;;;;;;5008818;28;20044;-58
2023/11/24 08:01:54;;;;;;;3.95;2.60;;;;;;;;;;5009986;28;20099;-58
2023/11/24 08:04:19;;;;;;;5.95;2.63;;;;;;;;;;4991576;28;20046;-59
2023/11/24 08:06:45;;;;;;;6.15;2.90;;;;;;;;;;5011271;28;20037;-58
2023/11/24 08:09:12;;;;;;;4.97;2.80;;;;;;;;;;5009900;28;20464;-58
2023/11/24 08:11:37;;;;;;;5.75;3.00;;;;;;;;;;5010974;28;20079;-58
2023/11/24 08:14:03;;;;;;;6.07;3.08;;;;;;;;;;5009898;28;20387;-57
2023/11/24 08:16:28;;;;;;;4.88;2.97;;;;;;;;;;5010327;28;20044;-57
2023/11/24 08:18:53;;;;;;;5.25;3.08;;;;;;;;;;5011277;28;20037;-59
2023/11/24 08:21:19;;;;;;;4.87;3.17;;;;;;;;;;5010920;28;20381;-61
2023/11/24 08:23:44;;;;;;;6.13;3.22;;;;;;;;;;4993721;28;20327;-60
2023/11/24 08:26:13;;;;;;;5.60;3.35;;;;;;;;;;5008097;28;20036;-59
2023/11/24 08:28:42;;;;;;;5.15;3.10;;;;;;;;;;5011448;28;20046;-59
2023/11/24 08:31:08;;;;;;;6.43;3.30;;;;;;;;;;5008719;28;20042;-62
2023/11/24 08:33:33;;;;;;;5.82;3.38;;;;;;;;;;5010618;28;20039;-59
2023/11/24 08:35:59;;;;;;;5.35;3.30;;;;;;;;;;5009920;28;20025;-58
2023/11/24 08:38:24;;;;;;;6.97;3.70;;;;;;;;;;5008214;28;20687;-58
2023/11/24 08:40:49;;;;;;;4.63;2.95;;;;;;;;;;4992539;28;20398;-57
2023/11/24 08:43:14;;;;;;;7.53;3.70;;;;;;;;;;5011298;28;20147;-57
2023/11/24 08:45:40;;;;;;;5.35;3.53;;;;;;;;;;5010853;28;20811;-57
2023/11/24 08:48:05;;;;;;;5.55;3.53;;;;;;;;;;5009619;28;20119;-58
2023/11/24 08:50:31;;;;;;;5.80;3.40;;;;;;;;;;5012035;28;20026;-58
2023/11/24 08:52:57;;;;;;;5.82;3.20;;;;;;;;;;4990562;28;20277;-57
2023/11/24 08:55:22;;;;;;;4.75;2.83;;;;;;;;;;5011203;28;20018;-57
2023/11/24 08:57:48;;;;;;;6.07;3.40;;;;;;;;;;5010050;28;21466;-58
2023/11/24 09:00:14;;;;;;;5.68;3.60;;;;;;;;;;5011543;28;20303;-58
2023/11/24 09:02:40;;;;;;;4.75;3.33;;;;;;;;;;5009709;28;20104;-57
2023/11/24 09:05:07;;;;;;;8.15;3.60;;;;;;;;;;4998204;28;20029;-56
2023/11/24 09:07:33;;;;;;;5.60;3.72;;;;;;;;;;5015982;28;20183;-58
2023/11/24 09:10:00;;;;;;;5.28;3.25;;;;;;;;;;5009236;28;20123;-58
2023/11/24 09:12:27;;;;;;;5.97;3.85;;;;;;;;;;5014977;28;20533;-57
2023/11/24 09:14:53;;;;;;;6.80;3.95;;;;;;;;;;5015104;28;20108;-57
2023/11/24 09:17:20;;;;;;;5.53;3.70;;;;;;;;;;5014105;28;20128;-58
2023/11/24 09:19:45;;;;;;;6.53;4.25;;;;;;;;;;5014372;28;20025;-57
2023/11/24 09:22:10;;;;;;;7.05;3.95;;;;;;;;;;5013546;28;20029;-59
2023/11/24 09:24:36;;;;;;;5.68;3.65;;;;;;;;;;5013788;28;20021;-58
2023/11/24 09:27:01;;;;;;;6.47;4.13;;;;;;;;;;5013241;28;20029;-58
2023/11/24 09:29:27;;;;;;;5.20;3.97;;;;;;;;;;5013902;28;20299;-59
2023/11/24 09:31:53;;;;;;;5.68;3.88;;;;;;;;;;5013790;28;20045;-57
2023/11/24 09:34:19;;;;;;;5.55;4.10;;;;;;;;;;5013727;28;20029;-58
2023/11/24 09:36:46;;;;;;;5.97;4.00;;;;;;;;;;5012766;28;20045;-58
2023/11/24 09:39:17;;;;;;;4.93;3.58;;;;;;;;;;5011695;28;20075;-58
2023/11/24 09:41:42;;;;;;;4.93;4.10;;;;;;;;;;5012190;28;20053;-58
2023/11/24 09:44:10;;;;;;;6.82;4.10;;;;;;;;;;5013161;28;20034;-58
2023/11/24 09:46:38;;;;;;;5.85;3.92;;;;;;;;;;5010135;28;20478;-59
2023/11/24 09:49:03;;;;;;;6.78;4.07;;;;;;;;;;5013135;28;20285;-58
2023/11/24 09:51:28;;;;;;;5.80;3.85;;;;;;;;;;5012282;28;20361;-59
2023/11/24 09:53:54;;;;;;;6.57;3.87;;;;;;;;;;5014200;28;20053;-57
2023/11/24 09:56:19;;;;;;;4.95;3.70;;;;;;;;;;5013241;28;20277;-58
2023/11/24 09:58:46;;;;;;;5.03;4.00;;;;;;;;;;5012446;28;20030;-58
2023/11/24 10:01:25;;;;;;;8.35;4.22;;;;;;;;;;5010145;28;20891;-56
2023/11/24 10:03:51;;;;;;;4.57;3.42;;;;;;;;;;5012091;28;20041;-57
2023/11/24 10:06:16;;;;;;;4.82;3.22;;;;;;;;;;5012525;28;20489;-57
2023/11/24 10:08:42;;;;;;;5.55;3.58;;;;;;;;;;4980392;28;20030;-57
2023/11/24 10:11:13;;;;;;;8.75;3.70;;;;;;;;;;5012868;28;20034;-57
2023/11/24 10:13:39;;;;;;;5.40;3.85;;;;;;;;;;5014201;28;20464;-56
2023/11/24 10:16:05;;;;;;;7.00;3.88;;;;;;;;;;5012683;28;20069;-57
2023/11/24 10:18:31;;;;;;;6.50;3.55;;;;;;;;;;5011015;28;20381;-57
2023/11/24 10:20:59;;;;;;;5.45;3.60;;;;;;;;;;5013774;28;20053;-57
2023/11/24 10:23:27;;;;;;;6.15;3.83;;;;;;;;;;5012370;28;20133;-57
2023/11/24 10:25:52;;;;;;;6.57;3.90;;;;;;;;;;5013459;28;20033;-57
2023/11/24 10:28:17;;;;;;;5.23;3.60;;;;;;;;;;5013443;28;20044;-57
2023/11/24 10:30:44;;;;;;;7.38;3.85;;;;;;;;;;4995756;28;20744;-58
2023/11/24 10:33:09;;;;;;;6.32;3.75;;;;;;;;;;5009151;28;20044;-57
2023/11/24 10:35:34;;;;;;;5.60;3.97;;;;;;;;;;5013398;28;20037;-57
2023/11/24 10:38:00;;;;;;;5.63;3.95;;;;;;;;;;5013146;28;20351;-57
2023/11/24 10:40:25;;;;;;;6.07;3.90;;;;;;;;;;4994592;28;20279;-59
2023/11/24 10:42:51;;;;;;;6.07;3.67;;;;;;;;;;5011928;28;20432;-60
2023/11/24 10:45:19;;;;;;;4.37;3.43;;;;;;;;;;5013144;28;20034;-59
2023/11/24 10:47:48;;;;;;;6.60;3.58;;;;;;;;;;5009273;28;20288;-59
2023/11/24 10:50:13;;;;;;;5.45;3.67;;;;;;;;;;5011983;28;20886;-58
2023/11/24 10:52:59;;;;;;;4.78;3.30;;;;;;;;;;5012171;28;20025;-58
2023/11/24 10:55:24;;;;;;;5.15;4.03;;;;;;;;;;5011271;28;20041;-58
2023/11/24 10:57:50;;;;;;;4.55;3.40;;;;;;;;;;5012919;28;20026;-57
2023/11/24 11:00:19;;;;;;;6.38;4.05;;;;;;;;;;4996635;28;20073;-60
2023/11/24 11:02:45;;;;;;;5.15;4.00;;;;;;;;;;5010480;28;20037;-57
2023/11/24 11:05:13;;;;;;;6.35;4.00;;;;;;;;;;5011628;28;20400;-57
2023/11/24 11:07:52;;;;;;;5.88;3.97;;;;;;;;;;5012042;28;20038;-59
2023/11/24 11:10:44;;;;;;;6.10;3.88;;;;;;;;;;5010627;28;20475;-57
2023/11/24 11:13:11;;;;;;;4.63;3.65;;;;;;;;;;5011487;28;20041;-57
2023/11/24 11:15:37;;;;;;;5.97;3.72;;;;;;;;;;5010997;28;20053;-56
2023/11/24 11:18:05;;;;;;;5.35;3.97;;;;;;;;;;5010310;28;20508;-58
2023/11/24 11:20:30;;;;;;;4.60;3.63;;;;;;;;;;5010560;28;20030;-58
2023/11/24 11:22:59;;;;;;;5.90;3.72;;;;;;;;;;5009452;28;20037;-57
2023/11/24 11:25:32;;;;;;;6.15;3.95;;;;;;;;;;5011642;28;20101;-57
2023/11/24 11:28:17;;;;;;;6.57;3.92;;;;;;;;;;5011497;28;21499;-58
2023/11/24 11:30:44;;;;;;;4.50;3.30;;;;;;;;;;5010231;28;20048;-57
2023/11/24 11:33:15;;;;;;;4.60;3.70;;;;;;;;;;5009928;28;21747;-57
2023/11/24 11:35:44;;;;;;;4.45;3.33;;;;;;;;;;5011110;28;20065;-58
2023/11/24 11:38:16;;;;;;;6.93;4.00;;;;;;;;;;5010156;28;20545;-57
2023/11/24 11:40:44;;;;;;;4.80;3.40;;;;;;;;;;5009323;28;20103;-58
2023/11/24 11:43:10;;;;;;;5.40;4.10;;;;;;;;;;5012216;28;20368;-58
2023/11/24 11:45:52;;;;;;;4.97;3.65;;;;;;;;;;4993245;28;20388;-57
2023/11/24 11:48:17;;;;;;;6.15;4.00;;;;;;;;;;5011190;28;21738;-58
2023/11/24 11:50:48;;;;;;;5.78;3.88;;;;;;;;;;5011906;28;20029;-58
2023/11/24 11:53:16;;;;;;;6.18;3.88;;;;;;;;;;4993428;28;20044;-58
2023/11/24 11:55:41;;;;;;;5.30;3.55;;;;;;;;;;5010838;28;20515;-59
2023/11/24 11:58:06;;;;;;;4.65;3.80;;;;;;;;;;5011995;28;20033;-58
2023/11/24 12:00:32;;;;;;;5.63;3.88;;;;;;;;;;5010816;28;20045;-59
2023/11/24 12:02:57;;;;;;;6.03;3.75;;;;;;;;;;5010944;28;20112;-58
2023/11/24 12:05:22;;;;;;;4.63;3.47;;;;;;;;;;5009885;28;20041;-58
2023/11/24 12:07:48;;;;;;;13.00;5.18;;;;;;;;;;5011128;28;20038;-58
2023/11/24 12:10:13;;;;;;;4.63;3.35;;;;;;;;;;5010263;28;20036;-57
2023/11/24 12:12:40;;;;;;;4.60;3.50;;;;;;;;;;5010113;28;20438;-57
2023/11/24 12:15:08;;;;;;;4.68;3.80;;;;;;;;;;4989370;28;20065;-57
2023/11/24 12:17:33;;;;;;;5.72;3.78;;;;;;;;;;5007449;28;20087;-58
2023/11/24 12:19:58;;;;;;;4.90;3.70;;;;;;;;;;5009210;28;20030;-58
2023/11/24 12:22:23;;;;;;;4.60;3.38;;;;;;;;;;5009702;28;20829;-58
2023/11/24 12:24:49;;;;;;;5.43;4.10;;;;;;;;;;5009366;28;20124;-58
2023/11/24 12:27:14;;;;;;;6.37;4.03;;;;;;;;;;4990668;28;20037;-56
2023/11/24 12:29:41;;;;;;;5.20;3.90;;;;;;;;;;5009421;28;20284;-58
2023/11/24 12:32:06;;;;;;;4.22;3.45;;;;;;;;;;5006266;28;20281;-59
2023/11/24 12:34:36;;;;;;;4.88;3.40;;;;;;;;;;5009659;28;20049;-59
2023/11/24 12:37:01;;;;;;;5.65;4.00;;;;;;;;;;5008842;28;20089;-57
2023/11/24 12:39:34;;;;;;;4.77;3.40;;;;;;;;;;5006391;28;20484;-58
2023/11/24 12:41:59;;;;;;;4.68;3.65;;;;;;;;;;5011112;28;20312;-57
2023/11/24 12:44:24;;;;;;;5.65;3.75;;;;;;;;;;5015459;28;20506;-59
2023/11/24 12:46:50;;;;;;;5.07;3.63;;;;;;;;;;4998155;28;20496;-57
2023/11/24 12:49:15;;;;;;;5.68;3.70;;;;;;;;;;5013633;28;20431;-57
2023/11/24 12:51:47;;;;;;;5.70;3.67;;;;;;;;;;5011017;28;20034;-58
2023/11/24 12:54:12;;;;;;;4.80;4.00;;;;;;;;;;4996450;28;20422;-58
2023/11/24 12:56:38;;;;;;;5.75;4.15;;;;;;;;;;5013388;28;20042;-58
2023/11/24 12:59:03;;;;;;;5.80;3.60;;;;;;;;;;5012944;28;20042;-58
2023/11/24 13:01:30;;;;;;;5.78;3.60;;;;;;;;;;4995188;28;20077;-58
2023/11/24 13:03:57;;;;;;;5.25;3.67;;;;;;;;;;5013214;28;20148;-57
2023/11/24 13:06:23;;;;;;;7.00;3.92;;;;;;;;;;5013619;28;20041;-58
2023/11/24 13:08:48;;;;;;;5.07;3.88;;;;;;;;;;5014030;28;20080;-58
2023/11/24 13:11:14;;;;;;;4.75;3.50;;;;;;;;;;5014053;28;20057;-57
2023/11/24 13:13:41;;;;;;;5.20;3.72;;;;;;;;;;5014419;28;20483;-57
2023/11/24 13:16:08;;;;;;;4.65;3.45;;;;;;;;;;5012310;28;20034;-59
2023/11/24 13:18:37;;;;;;;4.38;3.30;;;;;;;;;;5013247;28;20045;-60
2023/11/24 13:21:08;;;;;;;5.60;3.88;;;;;;;;;;4995120;28;20729;-59
2023/11/24 13:23:33;;;;;;;4.80;3.45;;;;;;;;;;5012720;28;20041;-58
2023/11/24 13:25:59;;;;;;;6.53;3.85;;;;;;;;;;5013274;28;20054;-59
2023/11/24 13:28:24;;;;;;;5.17;3.83;;;;;;;;;;5013471;28;20036;-57
2023/11/24 13:30:50;;;;;;;4.95;3.72;;;;;;;;;;5013432;28;20363;-58
2023/11/24 13:33:15;;;;;;;4.30;3.40;;;;;;;;;;5013241;28;20480;-58
2023/11/24 13:35:40;;;;;;;4.88;3.42;;;;;;;;;;5012540;28;20431;-59
2023/11/24 13:38:06;;;;;;;4.70;3.60;;;;;;;;;;5014103;28;20013;-58
2023/11/24 13:40:31;;;;;;;4.75;3.40;;;;;;;;;;5012532;28;20627;-58
2023/11/24 13:42:57;;;;;;;6.05;3.85;;;;;;;;;;5013311;28;20032;-59
2023/11/24 13:45:23;;;;;;;5.28;3.70;;;;;;;;;;4995460;28;20009;-58
2023/11/24 13:47:49;;;;;;;6.18;4.07;;;;;;;;;;5012828;28;20029;-59
2023/11/24 13:50:15;;;;;;;4.97;3.88;;;;;;;;;;5012740;28;20091;-58
2023/11/24 13:52:55;;;;;;;4.57;3.50;;;;;;;;;;5011198;28;20113;-58
2023/11/24 13:55:21;;;;;;;5.28;3.55;;;;;;;;;;5011905;28;20379;-59
2023/11/24 13:57:47;;;;;;;4.93;3.60;;;;;;;;;;5013462;28;20034;-58
2023/11/24 14:00:12;;;;;;;5.47;3.88;;;;;;;;;;5012195;28;20572;-57
2023/11/24 14:02:37;;;;;;;5.63;3.40;;;;;;;;;;4994737;28;21637;-58
2023/11/24 14:05:04;;;;;;;5.65;3.67;;;;;;;;;;5012647;28;20186;-58
2023/11/24 14:07:29;;;;;;;5.68;3.85;;;;;;;;;;5012360;28;20044;-58
2023/11/24 14:09:54;;;;;;;4.83;3.67;;;;;;;;;;5012814;28;20042;-58
2023/11/24 14:12:19;;;;;;;5.05;3.58;;;;;;;;;;4995278;28;20748;-58
2023/11/24 14:14:45;;;;;;;5.03;3.40;;;;;;;;;;5013501;28;20049;-57
2023/11/24 14:17:11;;;;;;;4.60;3.73;;;;;;;;;;5012637;28;20307;-57
2023/11/24 14:19:37;;;;;;;5.18;3.83;;;;;;;;;;5013324;28;20685;-58
2023/11/24 14:22:04;;;;;;;4.90;3.67;;;;;;;;;;5010898;28;20084;-57
2023/11/24 14:24:29;;;;;;;5.47;3.47;;;;;;;;;;5026399;28;20284;-57
2023/11/24 14:26:55;;;;;;;5.30;3.70;;;;;;;;;;5012407;28;20079;-58
2023/11/24 14:29:20;;;;;;;4.55;3.50;;;;;;;;;;5012749;28;20349;-59
2023/11/24 14:31:47;;;;;;;5.22;3.40;;;;;;;;;;4999814;28;20056;-56
2023/11/24 14:34:14;;;;;;;5.32;3.80;;;;;;;;;;5012581;28;20034;-59
2023/11/24 14:36:39;;;;;;;5.03;3.85;;;;;;;;;;5012861;28;20041;-57